Time;durP1;ratioP1;P1;durP2;ratioP2;P2;SDS_P1;SDS_P2;PMS_P1;PMS_P2;Temp;Humidity;BMP_temperature;BMP_pressure;BME280_temperature;BME280_humidity;BME280_pressure;Samples;Min_cycle;Max_cycle;Signal;HPM_P1;HPM_P2
2021/12/19 00:04:28;;;;;;;3.83;2.92;;;;;;;;;;5031089;28;20067;-69
2021/12/19 00:09:37;;;;;;;4.18;2.45;;;;;;;;;;5026080;28;20087;-71
2021/12/19 00:12:02;;;;;;;3.80;2.72;;;;;;;;;;5026571;28;20025;-72
2021/12/19 00:14:28;;;;;;;4.25;3.03;;;;;;;;;;5014153;28;20390;-72
2021/12/19 00:16:54;;;;;;;4.88;2.53;;;;;;;;;;5031851;28;20100;-68
2021/12/19 00:19:19;;;;;;;6.47;3.00;;;;;;;;;;5031649;28;20033;-69
2021/12/19 00:21:45;;;;;;;5.05;2.88;;;;;;;;;;5014206;28;20327;-69
2021/12/19 00:24:11;;;;;;;5.20;3.05;;;;;;;;;;5032243;28;20025;-69
2021/12/19 00:26:36;;;;;;;5.38;3.10;;;;;;;;;;5029895;28;20087;-69
2021/12/19 00:29:03;;;;;;;4.57;3.92;;;;;;;;;;5014122;28;20079;-69
2021/12/19 00:31:28;;;;;;;4.88;3.13;;;;;;;;;;5014282;28;20017;-68
2021/12/19 00:33:54;;;;;;;3.70;3.25;;;;;;;;;;5013254;28;20044;-69
2021/12/19 00:36:19;;;;;;;5.88;3.30;;;;;;;;;;5013682;28;20060;-69
2021/12/19 00:38:45;;;;;;;5.05;2.95;;;;;;;;;;5023487;28;20042;-69
2021/12/19 00:41:10;;;;;;;4.88;3.10;;;;;;;;;;5019899;28;20031;-69
2021/12/19 00:43:43;;;;;;;3.58;3.20;;;;;;;;;;5012136;28;20471;-69
2021/12/19 00:46:09;;;;;;;5.38;3.08;;;;;;;;;;5029640;28;20462;-70
2021/12/19 00:48:36;;;;;;;6.10;3.58;;;;;;;;;;5030073;28;20032;-70
2021/12/19 00:51:01;;;;;;;5.28;3.55;;;;;;;;;;5013791;28;20541;-70
2021/12/19 00:53:27;;;;;;;5.55;3.17;;;;;;;;;;5032198;28;20120;-69
2021/12/19 00:55:52;;;;;;;4.72;3.65;;;;;;;;;;5014203;28;20045;-70
2021/12/19 00:58:17;;;;;;;3.33;2.97;;;;;;;;;;5014064;28;20048;-70
2021/12/19 01:00:42;;;;;;;4.00;3.05;;;;;;;;;;5031337;28;20045;-70
2021/12/19 01:03:08;;;;;;;6.82;3.75;;;;;;;;;;5031105;28;20018;-70
2021/12/19 01:05:35;;;;;;;5.40;4.00;;;;;;;;;;5013485;28;20028;-70
2021/12/19 01:08:00;;;;;;;5.30;3.60;;;;;;;;;;5029355;28;20025;-69
2021/12/19 01:10:25;;;;;;;4.60;3.33;;;;;;;;;;5019401;28;20467;-69
2021/12/19 01:12:51;;;;;;;3.67;2.83;;;;;;;;;;5013680;28;20033;-70
2021/12/19 01:15:16;;;;;;;6.50;3.40;;;;;;;;;;5013628;28;20112;-70
2021/12/19 01:17:42;;;;;;;6.10;3.80;;;;;;;;;;5012912;28;20024;-70
2021/12/19 01:20:10;;;;;;;4.82;3.25;;;;;;;;;;5031282;28;20265;-70
2021/12/19 01:22:36;;;;;;;5.38;3.33;;;;;;;;;;5031646;28;20025;-70
2021/12/19 01:25:01;;;;;;;5.15;3.60;;;;;;;;;;5024979;28;20481;-70
2021/12/19 01:27:26;;;;;;;4.97;3.67;;;;;;;;;;5018552;28;20032;-70
2021/12/19 01:29:52;;;;;;;5.70;3.65;;;;;;;;;;4986562;28;20466;-70
2021/12/19 01:32:17;;;;;;;6.53;3.65;;;;;;;;;;5012919;28;20097;-70
2021/12/19 01:34:42;;;;;;;6.07;3.83;;;;;;;;;;5012750;28;20052;-70
2021/12/19 01:37:07;;;;;;;6.13;3.65;;;;;;;;;;5013195;28;20033;-70
2021/12/19 01:39:33;;;;;;;6.07;3.78;;;;;;;;;;5011201;28;20418;-69
2021/12/19 01:41:58;;;;;;;5.93;3.25;;;;;;;;;;5030916;28;20053;-69
2021/12/19 01:44:24;;;;;;;4.82;3.30;;;;;;;;;;5030943;28;20063;-70
2021/12/19 01:46:50;;;;;;;6.07;3.15;;;;;;;;;;5013721;28;20462;-70
2021/12/19 01:49:16;;;;;;;5.57;3.08;;;;;;;;;;5038962;28;20039;-69
2021/12/19 01:51:42;;;;;;;5.03;3.55;;;;;;;;;;5017203;28;20032;-69
2021/12/19 01:54:07;;;;;;;6.93;2.80;;;;;;;;;;5017015;28;20029;-70
2021/12/19 01:56:32;;;;;;;8.00;2.83;;;;;;;;;;5016959;28;20543;-70
2021/12/19 01:58:58;;;;;;;6.35;3.40;;;;;;;;;;5034436;28;20017;-69
2021/12/19 02:01:23;;;;;;;4.05;2.95;;;;;;;;;;5035097;28;20064;-70
2021/12/19 02:03:48;;;;;;;6.50;3.35;;;;;;;;;;5033314;28;20029;-70
2021/12/19 02:06:13;;;;;;;5.40;3.22;;;;;;;;;;5034550;28;20018;-70
2021/12/19 02:08:40;;;;;;;6.80;3.30;;;;;;;;;;5030250;28;20018;-70
2021/12/19 02:11:05;;;;;;;6.25;3.75;;;;;;;;;;5033961;28;20099;-69
2021/12/19 02:13:30;;;;;;;6.95;3.72;;;;;;;;;;5034478;28;20108;-70
2021/12/19 02:15:56;;;;;;;5.63;3.00;;;;;;;;;;5034425;28;20074;-70
2021/12/19 02:18:24;;;;;;;6.32;3.88;;;;;;;;;;5033812;28;20018;-70
2021/12/19 02:20:52;;;;;;;6.25;3.65;;;;;;;;;;5016168;28;20036;-70
2021/12/19 02:23:18;;;;;;;5.80;3.25;;;;;;;;;;5016661;28;20049;-70
2021/12/19 02:25:43;;;;;;;6.43;3.67;;;;;;;;;;5016124;28;20026;-70
2021/12/19 02:28:09;;;;;;;6.38;3.60;;;;;;;;;;5016729;28;20029;-70
2021/12/19 02:30:34;;;;;;;7.22;3.83;;;;;;;;;;5016254;28;20257;-71
2021/12/19 02:32:59;;;;;;;5.20;3.22;;;;;;;;;;5033743;28;20029;-70
2021/12/19 02:35:29;;;;;;;5.22;3.42;;;;;;;;;;5033713;28;20053;-71
2021/12/19 02:48:25;;;;;;;6.45;4.10;;;;;;;;;;5033555;28;20390;-71
2021/12/19 02:50:53;;;;;;;5.35;3.13;;;;;;;;;;5016006;28;20021;-70
2021/12/19 02:53:27;;;;;;;4.22;3.28;;;;;;;;;;5034010;28;20481;-71
2021/12/19 02:55:52;;;;;;;3.80;2.42;;;;;;;;;;5033880;28;20020;-70
2021/12/19 02:58:18;;;;;;;6.35;3.42;;;;;;;;;;5016270;28;20029;-70
2021/12/19 03:00:43;;;;;;;4.43;3.17;;;;;;;;;;5015098;28;20033;-70
2021/12/19 03:03:08;;;;;;;5.65;3.08;;;;;;;;;;5033210;28;20021;-71
2021/12/19 03:05:33;;;;;;;5.82;3.05;;;;;;;;;;5015481;28;20048;-71
2021/12/19 03:08:00;;;;;;;6.07;3.13;;;;;;;;;;5032133;28;20367;-70
2021/12/19 03:18:38;;;;;;;6.38;3.53;;;;;;;;;;5032987;28;20028;-70
2021/12/19 03:21:03;;;;;;;4.75;2.72;;;;;;;;;;5032932;28;20031;-70
2021/12/19 03:23:29;;;;;;;4.53;3.15;;;;;;;;;;5033026;28;20022;-70
2021/12/19 03:25:54;;;;;;;6.28;2.90;;;;;;;;;;5033142;28;20094;-70
2021/12/19 03:28:19;;;;;;;4.97;2.78;;;;;;;;;;5015499;28;20124;-70
2021/12/19 03:30:45;;;;;;;4.55;2.85;;;;;;;;;;5032793;28;20032;-70
2021/12/19 03:33:11;;;;;;;7.40;2.90;;;;;;;;;;5032420;28;20018;-70
2021/12/19 03:35:37;;;;;;;5.93;3.15;;;;;;;;;;5033475;28;20029;-70
2021/12/19 03:38:03;;;;;;;7.18;3.00;;;;;;;;;;5013628;28;20049;-70
2021/12/19 03:40:35;;;;;;;6.25;3.00;;;;;;;;;;5013360;28;20017;-70
2021/12/19 03:43:03;;;;;;;5.03;3.20;;;;;;;;;;5032904;28;20390;-70
2021/12/19 03:45:29;;;;;;;6.18;3.40;;;;;;;;;;5014677;28;20021;-70
2021/12/19 03:47:54;;;;;;;4.95;3.45;;;;;;;;;;5031983;28;20113;-70
2021/12/19 03:50:22;;;;;;;5.95;3.35;;;;;;;;;;5012968;28;20113;-70
2021/12/19 03:52:47;;;;;;;5.15;3.25;;;;;;;;;;5015126;28;20045;-70
2021/12/19 03:55:13;;;;;;;4.80;2.78;;;;;;;;;;5032416;28;20138;-70
2021/12/19 03:57:38;;;;;;;4.43;2.63;;;;;;;;;;5032339;28;20386;-70
2021/12/19 04:00:05;;;;;;;3.30;2.88;;;;;;;;;;4998471;28;20398;-70
2021/12/19 04:02:30;;;;;;;4.95;2.90;;;;;;;;;;5032164;28;20025;-69
2021/12/19 04:04:57;;;;;;;3.95;3.10;;;;;;;;;;5031604;28;20421;-70
2021/12/19 04:07:23;;;;;;;5.07;2.95;;;;;;;;;;5032766;28;20021;-70
2021/12/19 04:09:48;;;;;;;5.63;3.35;;;;;;;;;;5028342;28;20032;-69
2021/12/19 04:12:13;;;;;;;4.63;2.50;;;;;;;;;;4997309;28;20481;-69
2021/12/19 04:14:39;;;;;;;5.75;3.30;;;;;;;;;;5031508;28;20018;-69
2021/12/19 04:17:04;;;;;;;5.10;2.92;;;;;;;;;;5014622;28;20029;-70
2021/12/19 04:19:30;;;;;;;5.32;3.67;;;;;;;;;;5031865;28;20410;-69
2021/12/19 04:21:55;;;;;;;4.63;3.42;;;;;;;;;;5014261;28;20026;-70
2021/12/19 04:24:21;;;;;;;5.68;4.25;;;;;;;;;;5032242;28;20155;-69
2021/12/19 04:26:46;;;;;;;5.72;3.95;;;;;;;;;;5031948;28;20053;-69
2021/12/19 04:29:11;;;;;;;5.75;3.70;;;;;;;;;;5031879;28;20418;-70
2021/12/19 04:31:37;;;;;;;6.18;4.05;;;;;;;;;;5031949;28;20108;-70
2021/12/19 04:34:02;;;;;;;7.25;4.13;;;;;;;;;;5031076;28;20025;-70
2021/12/19 04:36:32;;;;;;;6.43;4.30;;;;;;;;;;5031813;28;20072;-70
2021/12/19 04:39:21;;;;;;;5.95;4.18;;;;;;;;;;5010985;28;20060;-70
2021/12/19 04:42:02;;;;;;;7.22;3.78;;;;;;;;;;5022789;28;20063;-70
2021/12/19 05:00:11;;;;;;;7.00;4.85;;;;;;;;;;5031910;28;20116;-69
2021/12/19 05:02:51;;;;;;;6.25;4.10;;;;;;;;;;5031170;28;20489;-69
2021/12/19 05:15:53;;;;;;;6.10;4.20;;;;;;;;;;5032093;28;20033;-69
2021/12/19 05:18:21;;;;;;;7.00;4.45;;;;;;;;;;5030883;28;20393;-69
2021/12/19 05:21:03;;;;;;;5.32;4.03;;;;;;;;;;5031673;28;20029;-69
2021/12/19 05:25:56;;;;;;;6.43;4.50;;;;;;;;;;5035617;28;20071;-70
2021/12/19 05:28:22;;;;;;;6.15;4.53;;;;;;;;;;5017263;28;20021;-69
2021/12/19 05:30:47;;;;;;;8.93;4.50;;;;;;;;;;5035414;28;20022;-69
2021/12/19 05:33:12;;;;;;;8.55;5.05;;;;;;;;;;5034107;28;20049;-69
2021/12/19 05:36:10;;;;;;;7.05;4.40;;;;;;;;;;5017689;28;20029;-70
2021/12/19 05:46:47;;;;;;;7.22;4.78;;;;;;;;;;5035102;28;20028;-69
2021/12/19 05:49:12;;;;;;;6.72;3.90;;;;;;;;;;4997366;28;20030;-69
2021/12/19 05:51:38;;;;;;;9.70;5.03;;;;;;;;;;5024395;28;20030;-69
2021/12/19 05:54:04;;;;;;;7.78;4.40;;;;;;;;;;5027705;28;20028;-68
2021/12/19 05:56:35;;;;;;;6.72;4.70;;;;;;;;;;5017008;28;20032;-69
2021/12/19 05:59:00;;;;;;;10.50;4.78;;;;;;;;;;5034185;28;20450;-70
2021/12/19 06:01:25;;;;;;;7.85;4.07;;;;;;;;;;5034654;28;20021;-69
2021/12/19 06:03:50;;;;;;;10.38;4.53;;;;;;;;;;5033613;28;20485;-71
2021/12/19 06:06:16;;;;;;;8.63;4.07;;;;;;;;;;5034749;28;20057;-70
2021/12/19 06:08:41;;;;;;;6.57;4.93;;;;;;;;;;5032817;28;20025;-70
2021/12/19 06:11:06;;;;;;;7.47;5.22;;;;;;;;;;5033702;28;20026;-70
2021/12/19 06:13:32;;;;;;;7.25;4.97;;;;;;;;;;5034593;28;20478;-70
2021/12/19 06:15:57;;;;;;;7.60;4.90;;;;;;;;;;5034545;28;20013;-70
2021/12/19 06:18:23;;;;;;;7.53;4.03;;;;;;;;;;4999790;28;20018;-69
2021/12/19 06:20:48;;;;;;;8.63;4.90;;;;;;;;;;5016070;28;20018;-69
2021/12/19 06:23:13;;;;;;;10.60;5.43;;;;;;;;;;5016691;28;20017;-70
2021/12/19 06:25:45;;;;;;;11.60;5.82;;;;;;;;;;5016351;28;20029;-69
2021/12/19 06:28:11;;;;;;;7.35;5.50;;;;;;;;;;5017799;28;20469;-69
2021/12/19 06:30:36;;;;;;;8.30;5.45;;;;;;;;;;5016199;28;20036;-70
2021/12/19 06:33:01;;;;;;;8.20;6.30;;;;;;;;;;5015982;28;20022;-69
2021/12/19 06:35:29;;;;;;;10.13;6.60;;;;;;;;;;5032448;28;20029;-69
2021/12/19 06:37:54;;;;;;;11.25;6.05;;;;;;;;;;5033291;28;20042;-69
2021/12/19 06:40:20;;;;;;;8.65;6.13;;;;;;;;;;5031140;28;20035;-71
2021/12/19 06:42:47;;;;;;;10.68;6.38;;;;;;;;;;5033274;28;20052;-70
2021/12/19 06:45:12;;;;;;;8.52;6.53;;;;;;;;;;5018948;28;20105;-71
2021/12/19 06:47:37;;;;;;;9.88;6.30;;;;;;;;;;4999815;28;20040;-69
2021/12/19 06:50:03;;;;;;;11.05;7.25;;;;;;;;;;5015512;28;20040;-69
2021/12/19 06:52:28;;;;;;;9.95;6.43;;;;;;;;;;5034051;28;20489;-71
2021/12/19 06:54:54;;;;;;;10.38;6.38;;;;;;;;;;5033782;28;20539;-70
2021/12/19 06:57:19;;;;;;;10.82;6.30;;;;;;;;;;5033607;28;20465;-70
2021/12/19 06:59:44;;;;;;;9.88;7.00;;;;;;;;;;5033711;28;20022;-70
2021/12/19 07:02:14;;;;;;;10.45;6.75;;;;;;;;;;5033103;28;20045;-70
2021/12/19 07:04:39;;;;;;;12.40;7.55;;;;;;;;;;5015827;28;20082;-70
2021/12/19 07:07:05;;;;;;;12.25;6.63;;;;;;;;;;5033712;28;20132;-69
2021/12/19 07:09:30;;;;;;;10.27;6.50;;;;;;;;;;5013099;28;20036;-69
2021/12/19 07:11:55;;;;;;;11.55;7.35;;;;;;;;;;5033335;28;20021;-70
2021/12/19 07:14:20;;;;;;;11.77;7.72;;;;;;;;;;5033101;28;20057;-69
2021/12/19 07:16:45;;;;;;;11.88;7.70;;;;;;;;;;5033667;28;20048;-70
2021/12/19 07:19:11;;;;;;;10.95;7.88;;;;;;;;;;5032608;28;20449;-70
2021/12/19 07:21:36;;;;;;;10.52;6.82;;;;;;;;;;5015328;28;20557;-69
2021/12/19 07:24:01;;;;;;;9.13;6.43;;;;;;;;;;5033350;28;20076;-69
2021/12/19 07:26:26;;;;;;;10.77;7.13;;;;;;;;;;5015356;28;20481;-70
2021/12/19 07:28:51;;;;;;;11.27;7.53;;;;;;;;;;5015458;28;20376;-70
2021/12/19 07:31:17;;;;;;;10.40;7.63;;;;;;;;;;5014889;28;20113;-70
2021/12/19 07:33:44;;;;;;;13.48;7.90;;;;;;;;;;5014286;28;20044;-70
2021/12/19 07:36:09;;;;;;;12.82;7.72;;;;;;;;;;5015252;28;20084;-70
2021/12/19 07:38:47;;;;;;;11.40;7.30;;;;;;;;;;5009282;28;20054;-70
2021/12/19 07:41:12;;;;;;;9.68;7.40;;;;;;;;;;5008840;28;20096;-70
2021/12/19 07:43:37;;;;;;;11.68;8.15;;;;;;;;;;5011869;28;20014;-69
2021/12/19 07:46:02;;;;;;;11.63;8.43;;;;;;;;;;5012860;28;20032;-70
2021/12/19 07:48:28;;;;;;;12.20;8.85;;;;;;;;;;5012535;28;20040;-69
2021/12/19 07:50:54;;;;;;;10.32;7.80;;;;;;;;;;5011212;28;20080;-69
2021/12/19 07:53:19;;;;;;;11.52;8.48;;;;;;;;;;5012703;28;20018;-70
2021/12/19 07:55:44;;;;;;;10.25;7.90;;;;;;;;;;5011595;28;20030;-70
2021/12/19 07:58:10;;;;;;;11.98;8.30;;;;;;;;;;5012802;28;20025;-70
2021/12/19 08:00:35;;;;;;;11.07;8.13;;;;;;;;;;5012624;28;20025;-71
2021/12/19 08:03:00;;;;;;;11.90;8.65;;;;;;;;;;5012224;28;20554;-71
2021/12/19 08:05:25;;;;;;;13.18;8.75;;;;;;;;;;5011911;28;20030;-70
2021/12/19 08:07:56;;;;;;;9.48;7.28;;;;;;;;;;5012766;28;20394;-69
2021/12/19 08:12:49;;;;;;;10.35;7.55;;;;;;;;;;5000689;28;20606;-69
2021/12/19 08:15:15;;;;;;;14.35;8.90;;;;;;;;;;5012734;28;20029;-69
2021/12/19 08:17:41;;;;;;;11.25;7.97;;;;;;;;;;5011056;28;20026;-70
2021/12/19 08:20:09;;;;;;;9.15;6.80;;;;;;;;;;5012013;28;20401;-69
2021/12/19 08:22:34;;;;;;;7.00;6.20;;;;;;;;;;5010890;28;20367;-69
2021/12/19 08:25:00;;;;;;;11.07;8.07;;;;;;;;;;5012523;28;20025;-68
2021/12/19 08:27:26;;;;;;;11.52;8.88;;;;;;;;;;5011903;28;20101;-69
2021/12/19 08:29:53;;;;;;;10.75;8.23;;;;;;;;;;5012266;28;20017;-70
2021/12/19 08:32:18;;;;;;;6.85;5.75;;;;;;;;;;5012210;28;20018;-68
2021/12/19 08:34:43;;;;;;;13.07;8.13;;;;;;;;;;5011370;28;20029;-69
2021/12/19 08:37:09;;;;;;;11.10;7.45;;;;;;;;;;5012191;28;20041;-69
2021/12/19 08:39:35;;;;;;;9.85;6.68;;;;;;;;;;5006911;28;20096;-69
2021/12/19 08:42:00;;;;;;;9.82;7.00;;;;;;;;;;5012109;28;20061;-69
2021/12/19 08:44:25;;;;;;;9.45;6.60;;;;;;;;;;5010942;28;20158;-69
2021/12/19 08:46:51;;;;;;;8.82;6.32;;;;;;;;;;5012180;28;20390;-69
2021/12/19 08:49:16;;;;;;;11.45;8.57;;;;;;;;;;4993911;28;20103;-69
2021/12/19 08:51:41;;;;;;;10.18;7.00;;;;;;;;;;5010878;28;20506;-69
2021/12/19 08:54:07;;;;;;;10.35;7.43;;;;;;;;;;5011946;28;20022;-69
2021/12/19 08:56:32;;;;;;;10.10;8.15;;;;;;;;;;5011622;28;20031;-69
2021/12/19 08:58:58;;;;;;;13.68;8.70;;;;;;;;;;5011799;28;20437;-69
2021/12/19 09:01:23;;;;;;;11.25;6.00;;;;;;;;;;5011975;28;20080;-69
2021/12/19 09:03:48;;;;;;;8.70;6.70;;;;;;;;;;5009650;28;20096;-69
2021/12/19 09:06:14;;;;;;;10.93;7.55;;;;;;;;;;5012171;28;20056;-69
2021/12/19 09:08:39;;;;;;;9.05;6.50;;;;;;;;;;5007690;28;20021;-69
2021/12/19 09:11:04;;;;;;;9.68;7.13;;;;;;;;;;5005591;28;20021;-70
2021/12/19 09:13:30;;;;;;;11.27;7.60;;;;;;;;;;5000697;28;20025;-69
2021/12/19 09:15:55;;;;;;;9.40;7.28;;;;;;;;;;5012311;28;20021;-70
2021/12/19 09:18:21;;;;;;;10.90;7.78;;;;;;;;;;5009792;28;20569;-70
2021/12/19 09:20:46;;;;;;;10.98;7.57;;;;;;;;;;5011889;28;20029;-70
2021/12/19 09:23:12;;;;;;;9.18;7.47;;;;;;;;;;5011635;28;20087;-70
2021/12/19 09:25:37;;;;;;;12.82;7.60;;;;;;;;;;5010597;28;20044;-69
2021/12/19 09:28:03;;;;;;;9.45;6.40;;;;;;;;;;5011607;28;20026;-69
2021/12/19 09:30:28;;;;;;;9.80;7.50;;;;;;;;;;5011705;28;20018;-69
2021/12/19 09:32:56;;;;;;;10.07;7.35;;;;;;;;;;5011442;28;20026;-70
2021/12/19 09:35:22;;;;;;;10.70;7.03;;;;;;;;;;5011303;28;20072;-70
2021/12/19 09:37:47;;;;;;;8.25;6.57;;;;;;;;;;5007144;28;20460;-70
2021/12/19 09:40:18;;;;;;;10.65;7.75;;;;;;;;;;5025395;28;20481;-69
2021/12/19 09:42:48;;;;;;;5.50;4.32;;;;;;;;;;5013019;28;20026;-70
2021/12/19 09:45:14;;;;;;;7.55;5.72;;;;;;;;;;5028777;28;20437;-70
2021/12/19 09:47:39;;;;;;;7.38;5.53;;;;;;;;;;5031071;28;20013;-70
2021/12/19 09:50:07;;;;;;;7.82;5.57;;;;;;;;;;5013269;28;20397;-70
2021/12/19 09:52:32;;;;;;;9.13;6.85;;;;;;;;;;5031357;28;20060;-70
2021/12/19 09:54:57;;;;;;;9.25;6.53;;;;;;;;;;5030047;28;20030;-69
2021/12/19 09:57:23;;;;;;;10.40;7.13;;;;;;;;;;5029743;28;20031;-69
2021/12/19 09:59:48;;;;;;;8.90;6.50;;;;;;;;;;5031034;28;20029;-69
2021/12/19 10:02:13;;;;;;;7.70;5.93;;;;;;;;;;5030373;28;20379;-70
2021/12/19 10:04:43;;;;;;;8.73;6.00;;;;;;;;;;5012308;28;20167;-70
2021/12/19 10:07:19;;;;;;;8.35;6.60;;;;;;;;;;5013172;28;20116;-70
2021/12/19 10:09:56;;;;;;;8.68;5.43;;;;;;;;;;5023549;28;20029;-70
2021/12/19 10:12:38;;;;;;;8.20;5.88;;;;;;;;;;5030819;28;20079;-70
2021/12/19 10:15:14;;;;;;;8.73;6.03;;;;;;;;;;5034543;28;20029;-70
2021/12/19 10:17:39;;;;;;;9.18;6.30;;;;;;;;;;5034338;28;20021;-70
2021/12/19 10:20:07;;;;;;;9.55;5.70;;;;;;;;;;5015946;28;20393;-70
2021/12/19 10:22:34;;;;;;;9.65;5.82;;;;;;;;;;5034017;28;20039;-70
2021/12/19 10:25:19;;;;;;;8.43;5.60;;;;;;;;;;5033909;28;20021;-70
2021/12/19 10:27:52;;;;;;;6.05;4.85;;;;;;;;;;5015670;28;20022;-70
2021/12/19 10:30:31;;;;;;;7.28;5.20;;;;;;;;;;5030836;28;20045;-70
2021/12/19 10:33:15;;;;;;;8.13;4.97;;;;;;;;;;5026627;28;20025;-70
2021/12/19 10:35:47;;;;;;;8.07;5.03;;;;;;;;;;5050221;28;20022;-69
2021/12/19 10:38:31;;;;;;;5.80;4.28;;;;;;;;;;5032000;28;20133;-70
2021/12/19 10:40:58;;;;;;;7.53;4.63;;;;;;;;;;5030715;28;20025;-70
2021/12/19 10:43:27;;;;;;;6.13;4.40;;;;;;;;;;5012740;28;20505;-70
2021/12/19 10:45:53;;;;;;;6.35;4.68;;;;;;;;;;5029050;28;20021;-70
2021/12/19 10:48:18;;;;;;;5.18;4.00;;;;;;;;;;5015602;28;20024;-71
2021/12/19 10:50:46;;;;;;;5.95;5.10;;;;;;;;;;5033417;28;20021;-71
2021/12/19 10:53:12;;;;;;;8.45;4.40;;;;;;;;;;5033965;28;20024;-70
2021/12/19 10:55:43;;;;;;;5.60;4.13;;;;;;;;;;5015229;28;20029;-71
2021/12/19 10:58:25;;;;;;;5.43;4.25;;;;;;;;;;5033636;28;20074;-68
2021/12/19 11:00:54;;;;;;;4.45;3.70;;;;;;;;;;5033442;28;20013;-70
2021/12/19 11:03:37;;;;;;;4.95;3.80;;;;;;;;;;5017825;28;20045;-72
2021/12/19 11:06:12;;;;;;;5.85;4.15;;;;;;;;;;5028244;28;20033;-71
2021/12/19 11:08:39;;;;;;;5.43;3.95;;;;;;;;;;5014112;28;20026;-72
2021/12/19 11:11:05;;;;;;;5.72;3.63;;;;;;;;;;5014552;28;20112;-74
2021/12/19 11:13:30;;;;;;;4.82;3.50;;;;;;;;;;5033019;28;20092;-72
2021/12/19 11:15:55;;;;;;;4.40;2.85;;;;;;;;;;5033309;28;20360;-73
2021/12/19 11:18:20;;;;;;;4.68;3.50;;;;;;;;;;4998375;28;20465;-72
2021/12/19 11:20:46;;;;;;;4.32;3.25;;;;;;;;;;5032399;28;20034;-73
2021/12/19 11:23:11;;;;;;;5.85;3.10;;;;;;;;;;5033017;28;20029;-71
2021/12/19 11:25:36;;;;;;;4.35;2.97;;;;;;;;;;5032660;28;20418;-71
2021/12/19 11:28:02;;;;;;;5.93;3.50;;;;;;;;;;5033295;28;20021;-71
2021/12/19 11:30:27;;;;;;;4.22;3.13;;;;;;;;;;5032365;28;20071;-69
2021/12/19 11:32:59;;;;;;;4.25;2.80;;;;;;;;;;5031719;28;20481;-72
2021/12/19 11:35:26;;;;;;;4.28;2.85;;;;;;;;;;5032229;28;20060;-72
2021/12/19 11:37:57;;;;;;;5.50;3.15;;;;;;;;;;5015083;28;20052;-73
2021/12/19 11:40:23;;;;;;;3.22;2.38;;;;;;;;;;5029771;28;20055;-72
2021/12/19 11:42:49;;;;;;;3.63;2.45;;;;;;;;;;4995255;28;20534;-71
2021/12/19 11:48:10;;;;;;;4.80;2.97;;;;;;;;;;5018396;28;20036;-72
2021/12/19 11:50:45;;;;;;;3.65;2.38;;;;;;;;;;5014717;28;20544;-72
2021/12/19 11:53:10;;;;;;;3.15;2.22;;;;;;;;;;5015267;28;20453;-73
2021/12/19 11:55:40;;;;;;;3.30;2.60;;;;;;;;;;5032727;28;20540;-72
2021/12/19 11:58:08;;;;;;;2.88;2.28;;;;;;;;;;5032714;28;20033;-72
2021/12/19 12:00:36;;;;;;;2.67;2.17;;;;;;;;;;5032355;28;20030;-71
2021/12/19 12:03:13;;;;;;;5.35;3.20;;;;;;;;;;5005974;28;20033;-71
2021/12/19 12:05:39;;;;;;;3.67;2.25;;;;;;;;;;5012924;28;20025;-71
2021/12/19 12:08:04;;;;;;;3.75;2.30;;;;;;;;;;5028109;28;20044;-71
2021/12/19 12:10:48;;;;;;;5.78;3.95;;;;;;;;;;5022394;28;20021;-72
2021/12/19 12:13:21;;;;;;;2.88;2.28;;;;;;;;;;5022763;28;20021;-71
2021/12/19 12:15:46;;;;;;;2.70;1.98;;;;;;;;;;5032059;28;20108;-72
2021/12/19 12:18:30;;;;;;;3.45;2.38;;;;;;;;;;5031291;28;20112;-72
2021/12/19 12:20:55;;;;;;;3.42;2.42;;;;;;;;;;5013931;28;20171;-73
2021/12/19 12:23:27;;;;;;;4.25;2.70;;;;;;;;;;5031689;28;20608;-71
2021/12/19 12:25:52;;;;;;;3.00;1.95;;;;;;;;;;5031750;28;20056;-72
2021/12/19 12:28:18;;;;;;;3.05;2.42;;;;;;;;;;5031171;28;20072;-73
2021/12/19 12:30:45;;;;;;;3.45;2.65;;;;;;;;;;5013833;28;20018;-71
2021/12/19 12:33:14;;;;;;;4.93;3.33;;;;;;;;;;5030027;28;20033;-71
2021/12/19 12:35:40;;;;;;;2.45;2.25;;;;;;;;;;5031485;28;20044;-71
2021/12/19 12:38:06;;;;;;;4.35;2.38;;;;;;;;;;5029781;28;20131;-71
2021/12/19 12:40:52;;;;;;;4.72;2.20;;;;;;;;;;5002534;28;20481;-72
2021/12/19 12:43:17;;;;;;;3.33;2.13;;;;;;;;;;5016153;28;20028;-72
2021/12/19 12:46:02;;;;;;;3.22;2.35;;;;;;;;;;5031859;28;20393;-73
2021/12/19 12:48:32;;;;;;;5.32;2.72;;;;;;;;;;5030810;28;20021;-71
2021/12/19 12:50:58;;;;;;;3.85;2.42;;;;;;;;;;5031646;28;20017;-70
2021/12/19 12:53:27;;;;;;;2.60;1.65;;;;;;;;;;5031363;28;20017;-72
2021/12/19 12:55:59;;;;;;;2.83;1.90;;;;;;;;;;5031048;28;20029;-73
2021/12/19 12:58:24;;;;;;;2.58;1.58;;;;;;;;;;5013284;28;20028;-72
2021/12/19 13:00:49;;;;;;;2.88;2.00;;;;;;;;;;5031517;28;20021;-71
2021/12/19 13:03:28;;;;;;;3.05;2.13;;;;;;;;;;4996393;28;20068;-73
2021/12/19 13:05:53;;;;;;;5.30;1.95;;;;;;;;;;5013975;28;20414;-72
2021/12/19 13:08:21;;;;;;;3.78;2.22;;;;;;;;;;5007423;28;20072;-71
2021/12/19 13:10:51;;;;;;;2.50;1.60;;;;;;;;;;5010061;28;20425;-72
2021/12/19 13:13:18;;;;;;;2.65;1.42;;;;;;;;;;5031013;28;20104;-72
2021/12/19 13:15:43;;;;;;;1.90;1.55;;;;;;;;;;5031361;28;20494;-72
2021/12/19 13:18:09;;;;;;;1.90;1.70;;;;;;;;;;5013053;28;20032;-70
2021/12/19 13:20:36;;;;;;;2.65;1.50;;;;;;;;;;5031090;28;20028;-71
2021/12/19 13:23:03;;;;;;;2.97;1.70;;;;;;;;;;5031319;28;20025;-71
2021/12/19 13:25:37;;;;;;;1.20;0.80;;;;;;;;;;5014724;28;20029;-70
2021/12/19 13:28:03;;;;;;;2.15;1.50;;;;;;;;;;5033136;28;20064;-71
2021/12/19 13:30:30;;;;;;;2.70;1.60;;;;;;;;;;5012947;28;20021;-70
2021/12/19 13:32:57;;;;;;;2.15;1.30;;;;;;;;;;5031076;28;20470;-71
2021/12/19 13:35:32;;;;;;;2.40;1.40;;;;;;;;;;5030027;28;20025;-70
2021/12/19 13:37:59;;;;;;;2.95;1.30;;;;;;;;;;5029627;28;20060;-71
2021/12/19 13:40:26;;;;;;;1.95;1.50;;;;;;;;;;5028829;28;20029;-70
2021/12/19 13:42:53;;;;;;;2.22;0.95;;;;;;;;;;5033373;28;20181;-71
2021/12/19 13:45:24;;;;;;;1.58;1.10;;;;;;;;;;5040892;28;20021;-70
2021/12/19 13:47:50;;;;;;;1.20;0.98;;;;;;;;;;5043103;28;20013;-70
2021/12/19 13:50:16;;;;;;;1.75;1.10;;;;;;;;;;5054163;28;20013;-70
2021/12/19 13:52:41;;;;;;;1.30;0.98;;;;;;;;;;5042541;28;20419;-70
2021/12/19 13:55:07;;;;;;;1.23;1.10;;;;;;;;;;5016880;28;20036;-72
2021/12/19 13:57:32;;;;;;;2.60;1.30;;;;;;;;;;5049588;28;20104;-70
2021/12/19 13:59:57;;;;;;;1.35;1.00;;;;;;;;;;5034380;28;20156;-69
2021/12/19 14:02:23;;;;;;;1.80;0.95;;;;;;;;;;5034260;28;20123;-71
2021/12/19 14:04:48;;;;;;;2.80;0.85;;;;;;;;;;5033456;28;20024;-71
2021/12/19 14:07:15;;;;;;;1.10;0.90;;;;;;;;;;5016544;28;20407;-72
2021/12/19 14:09:41;;;;;;;3.25;2.00;;;;;;;;;;5025142;28;20450;-72
2021/12/19 14:12:23;;;;;;;2.13;1.48;;;;;;;;;;5014813;28;20033;-70
2021/12/19 14:14:49;;;;;;;1.23;0.82;;;;;;;;;;5016064;28;20021;-71
2021/12/19 14:17:14;;;;;;;2.58;1.50;;;;;;;;;;5034609;28;20505;-72
2021/12/19 14:19:40;;;;;;;2.25;1.30;;;;;;;;;;5015757;28;20025;-72
2021/12/19 14:22:05;;;;;;;1.20;1.10;;;;;;;;;;5034120;28;20516;-73
2021/12/19 14:24:41;;;;;;;1.20;0.90;;;;;;;;;;5033899;28;20108;-72
2021/12/19 14:27:13;;;;;;;1.83;1.23;;;;;;;;;;5008498;28;20136;-72
2021/12/19 14:29:41;;;;;;;1.73;1.38;;;;;;;;;;5033592;28;20112;-71
2021/12/19 14:32:26;;;;;;;1.45;1.13;;;;;;;;;;5033843;28;20026;-72
2021/12/19 14:34:56;;;;;;;1.65;1.00;;;;;;;;;;5013615;28;20041;-71
2021/12/19 14:37:35;;;;;;;1.88;1.02;;;;;;;;;;5033406;28;20032;-71
2021/12/19 14:40:00;;;;;;;1.02;0.80;;;;;;;;;;5017918;28;20637;-70
2021/12/19 14:42:42;;;;;;;3.65;1.33;;;;;;;;;;5032904;28;20026;-72
2021/12/19 14:45:10;;;;;;;2.95;1.40;;;;;;;;;;5031268;28;20105;-72
2021/12/19 14:47:45;;;;;;;1.35;0.82;;;;;;;;;;5033552;28;20099;-72
2021/12/19 14:50:16;;;;;;;1.17;0.88;;;;;;;;;;5033052;28;20035;-70
2021/12/19 14:52:57;;;;;;;2.17;1.00;;;;;;;;;;5033387;28;20028;-73
2021/12/19 14:55:24;;;;;;;2.60;1.10;;;;;;;;;;5021470;28;20025;-71
2021/12/19 14:57:49;;;;;;;2.53;1.13;;;;;;;;;;5015667;28;20363;-72
2021/12/19 15:00:14;;;;;;;1.40;1.10;;;;;;;;;;5033467;28;20036;-72
2021/12/19 15:02:39;;;;;;;1.75;1.27;;;;;;;;;;5033470;28;20041;-71
2021/12/19 15:05:05;;;;;;;1.73;0.80;;;;;;;;;;5015071;28;20554;-71
2021/12/19 15:07:31;;;;;;;2.45;1.00;;;;;;;;;;5033294;28;20496;-72
2021/12/19 15:09:56;;;;;;;1.88;0.93;;;;;;;;;;4995534;28;20028;-72
2021/12/19 15:12:21;;;;;;;1.83;1.50;;;;;;;;;;5014411;28;20049;-70
2021/12/19 15:14:46;;;;;;;1.70;1.10;;;;;;;;;;4999070;28;20025;-72
2021/12/19 15:17:11;;;;;;;2.10;1.10;;;;;;;;;;5001867;28;20044;-71
2021/12/19 15:19:37;;;;;;;1.98;1.00;;;;;;;;;;5034723;28;20024;-72
2021/12/19 15:22:02;;;;;;;1.27;1.08;;;;;;;;;;5033881;28;20124;-71
2021/12/19 15:24:27;;;;;;;2.20;1.45;;;;;;;;;;5033121;28;20024;-72
2021/12/19 15:26:52;;;;;;;2.50;1.05;;;;;;;;;;4998313;28;20022;-70
2021/12/19 15:29:18;;;;;;;3.50;2.03;;;;;;;;;;5014920;28;20052;-71
2021/12/19 15:31:43;;;;;;;2.13;1.50;;;;;;;;;;5019008;28;20436;-71
2021/12/19 15:34:09;;;;;;;2.78;1.48;;;;;;;;;;5014217;28;20021;-70
2021/12/19 15:36:35;;;;;;;2.30;1.60;;;;;;;;;;5032823;28;20033;-70
2021/12/19 15:39:01;;;;;;;2.15;1.52;;;;;;;;;;5027923;28;20129;-69
2021/12/19 15:41:26;;;;;;;4.10;1.77;;;;;;;;;;5031137;28;20108;-71
2021/12/19 15:43:51;;;;;;;4.32;1.35;;;;;;;;;;5025895;28;20079;-70
2021/12/19 15:46:20;;;;;;;1.50;1.13;;;;;;;;;;5029004;28;20029;-69
2021/12/19 15:48:45;;;;;;;2.03;1.52;;;;;;;;;;5025292;28;20405;-70